sensor_id;sensor_type;location;lat;lon;timestamp;P1;durP1;ratioP1;P2;durP2;ratioP2
44430;SDS011;30135;47.866;-4.222;2022-12-08T00:01:11;15.90;;;5.78;;
44430;SDS011;30135;47.866;-4.222;2022-12-08T00:03:39;17.95;;;6.28;;
44430;SDS011;30135;47.866;-4.222;2022-12-08T00:09:38;15.35;;;6.70;;
44430;SDS011;30135;47.866;-4.222;2022-12-08T00:12:11;14.70;;;6.20;;
44430;SDS011;30135;47.866;-4.222;2022-12-08T00:14:54;16.67;;;6.05;;
44430;SDS011;30135;47.866;-4.222;2022-12-08T00:17:33;11.57;;;6.63;;
44430;SDS011;30135;47.866;-4.222;2022-12-08T00:20:08;17.02;;;5.82;;
44430;SDS011;30135;47.866;-4.222;2022-12-08T00:22:38;14.35;;;6.25;;
44430;SDS011;30135;47.866;-4.222;2022-12-08T00:25:12;11.55;;;5.45;;
44430;SDS011;30135;47.866;-4.222;2022-12-08T00:27:49;12.15;;;5.97;;
44430;SDS011;30135;47.866;-4.222;2022-12-08T00:30:43;12.95;;;5.07;;
44430;SDS011;30135;47.866;-4.222;2022-12-08T00:33:26;12.80;;;6.07;;
44430;SDS011;30135;47.866;-4.222;2022-12-08T00:36:03;9.40;;;4.82;;
44430;SDS011;30135;47.866;-4.222;2022-12-08T00:38:36;14.85;;;6.25;;
44430;SDS011;30135;47.866;-4.222;2022-12-08T00:41:34;12.20;;;5.35;;
44430;SDS011;30135;47.866;-4.222;2022-12-08T00:44:28;10.98;;;4.95;;
44430;SDS011;30135;47.866;-4.222;2022-12-08T00:47:16;10.55;;;5.20;;
44430;SDS011;30135;47.866;-4.222;2022-12-08T00:50:01;10.25;;;4.97;;
44430;SDS011;30135;47.866;-4.222;2022-12-08T00:52:47;8.20;;;4.72;;
44430;SDS011;30135;47.866;-4.222;2022-12-08T00:55:26;16.02;;;5.57;;
44430;SDS011;30135;47.866;-4.222;2022-12-08T00:57:56;14.68;;;5.15;;
44430;SDS011;30135;47.866;-4.222;2022-12-08T01:00:31;10.10;;;5.30;;
44430;SDS011;30135;47.866;-4.222;2022-12-08T01:03:19;14.68;;;5.65;;
44430;SDS011;30135;47.866;-4.222;2022-12-08T01:06:03;10.88;;;5.15;;
44430;SDS011;30135;47.866;-4.222;2022-12-08T01:08:40;17.55;;;5.05;;
44430;SDS011;30135;47.866;-4.222;2022-12-08T01:11:21;13.25;;;5.22;;
44430;SDS011;30135;47.866;-4.222;2022-12-08T01:14:13;12.90;;;5.57;;
44430;SDS011;30135;47.866;-4.222;2022-12-08T01:16:43;9.15;;;4.93;;
44430;SDS011;30135;47.866;-4.222;2022-12-08T01:19:21;11.45;;;5.10;;
44430;SDS011;30135;47.866;-4.222;2022-12-08T01:22:07;8.90;;;4.72;;
44430;SDS011;30135;47.866;-4.222;2022-12-08T01:24:47;14.00;;;5.47;;
44430;SDS011;30135;47.866;-4.222;2022-12-08T01:27:31;9.32;;;5.05;;
44430;SDS011;30135;47.866;-4.222;2022-12-08T01:30:10;11.32;;;5.07;;
44430;SDS011;30135;47.866;-4.222;2022-12-08T01:33:42;10.52;;;5.43;;
44430;SDS011;30135;47.866;-4.222;2022-12-08T01:38:58;11.15;;;5.35;;
44430;SDS011;30135;47.866;-4.222;2022-12-08T01:41:33;11.45;;;5.53;;
44430;SDS011;30135;47.866;-4.222;2022-12-08T01:46:57;13.50;;;5.15;;
44430;SDS011;30135;47.866;-4.222;2022-12-08T01:49:31;10.18;;;5.55;;
44430;SDS011;30135;47.866;-4.222;2022-12-08T01:52:17;14.20;;;5.35;;
44430;SDS011;30135;47.866;-4.222;2022-12-08T01:55:24;14.32;;;5.93;;
44430;SDS011;30135;47.866;-4.222;2022-12-08T01:58:05;10.18;;;4.80;;
44430;SDS011;30135;47.866;-4.222;2022-12-08T02:01:12;12.02;;;5.28;;
44430;SDS011;30135;47.866;-4.222;2022-12-08T02:06:30;10.00;;;5.05;;
44430;SDS011;30135;47.866;-4.222;2022-12-08T02:09:05;11.48;;;5.60;;
44430;SDS011;30135;47.866;-4.222;2022-12-08T02:11:56;12.85;;;5.15;;
44430;SDS011;30135;47.866;-4.222;2022-12-08T02:14:25;12.70;;;6.15;;
44430;SDS011;30135;47.866;-4.222;2022-12-08T02:17:13;10.77;;;4.95;;
44430;SDS011;30135;47.866;-4.222;2022-12-08T02:20:40;14.52;;;7.00;;
44430;SDS011;30135;47.866;-4.222;2022-12-08T02:23:46;18.77;;;7.50;;
44430;SDS011;30135;47.866;-4.222;2022-12-08T02:33:20;17.50;;;6.57;;
44430;SDS011;30135;47.866;-4.222;2022-12-08T02:37:05;9.90;;;5.53;;
44430;SDS011;30135;47.866;-4.222;2022-12-08T02:46:32;10.93;;;5.88;;
44430;SDS011;30135;47.866;-4.222;2022-12-08T02:49:13;8.63;;;4.75;;
44430;SDS011;30135;47.866;-4.222;2022-12-08T02:51:42;10.75;;;5.57;;
44430;SDS011;30135;47.866;-4.222;2022-12-08T02:54:12;9.82;;;5.50;;
44430;SDS011;30135;47.866;-4.222;2022-12-08T03:08:54;11.40;;;5.95;;
44430;SDS011;30135;47.866;-4.222;2022-12-08T03:11:46;11.95;;;5.55;;
44430;SDS011;30135;47.866;-4.222;2022-12-08T03:14:22;17.63;;;6.60;;
44430;SDS011;30135;47.866;-4.222;2022-12-08T03:16:57;13.55;;;6.15;;
44430;SDS011;30135;47.866;-4.222;2022-12-08T03:19:32;17.33;;;6.25;;
44430;SDS011;30135;47.866;-4.222;2022-12-08T03:22:27;12.00;;;6.45;;
44430;SDS011;30135;47.866;-4.222;2022-12-08T03:25:09;12.30;;;5.95;;
44430;SDS011;30135;47.866;-4.222;2022-12-08T03:27:59;10.80;;;5.68;;
44430;SDS011;30135;47.866;-4.222;2022-12-08T03:30:27;13.68;;;5.93;;
44430;SDS011;30135;47.866;-4.222;2022-12-08T03:36:24;11.23;;;5.70;;
44430;SDS011;30135;47.866;-4.222;2022-12-08T03:39:15;12.63;;;5.90;;
44430;SDS011;30135;47.866;-4.222;2022-12-08T03:42:25;15.30;;;6.15;;
44430;SDS011;30135;47.866;-4.222;2022-12-08T03:45:03;13.43;;;6.13;;
44430;SDS011;30135;47.866;-4.222;2022-12-08T03:47:59;8.95;;;5.25;;
44430;SDS011;30135;47.866;-4.222;2022-12-08T03:50:41;12.77;;;5.22;;
44430;SDS011;30135;47.866;-4.222;2022-12-08T03:53:10;12.55;;;6.38;;
44430;SDS011;30135;47.866;-4.222;2022-12-08T03:55:52;12.27;;;5.75;;
44430;SDS011;30135;47.866;-4.222;2022-12-08T03:58:42;16.13;;;5.18;;
44430;SDS011;30135;47.866;-4.222;2022-12-08T04:01:09;8.88;;;5.15;;
44430;SDS011;30135;47.866;-4.222;2022-12-08T04:03:38;10.85;;;4.82;;
44430;SDS011;30135;47.866;-4.222;2022-12-08T04:06:16;9.43;;;4.07;;
44430;SDS011;30135;47.866;-4.222;2022-12-08T04:09:12;10.52;;;4.65;;
44430;SDS011;30135;47.866;-4.222;2022-12-08T04:11:48;8.35;;;4.60;;
44430;SDS011;30135;47.866;-4.222;2022-12-08T04:14:27;9.52;;;4.53;;
44430;SDS011;30135;47.866;-4.222;2022-12-08T04:17:28;16.10;;;4.95;;
44430;SDS011;30135;47.866;-4.222;2022-12-08T04:20:05;7.50;;;4.60;;
44430;SDS011;30135;47.866;-4.222;2022-12-08T04:23:05;13.38;;;4.05;;
44430;SDS011;30135;47.866;-4.222;2022-12-08T04:25:37;7.70;;;4.35;;
44430;SDS011;30135;47.866;-4.222;2022-12-08T04:28:41;8.40;;;4.13;;
44430;SDS011;30135;47.866;-4.222;2022-12-08T04:31:59;6.65;;;3.40;;
44430;SDS011;30135;47.866;-4.222;2022-12-08T04:35:15;8.95;;;4.85;;
44430;SDS011;30135;47.866;-4.222;2022-12-08T04:38:02;11.18;;;4.40;;
44430;SDS011;30135;47.866;-4.222;2022-12-08T04:40:39;7.82;;;4.05;;
44430;SDS011;30135;47.866;-4.222;2022-12-08T04:43:31;8.80;;;4.80;;
44430;SDS011;30135;47.866;-4.222;2022-12-08T04:45:57;6.10;;;4.00;;
44430;SDS011;30135;47.866;-4.222;2022-12-08T04:48:24;13.50;;;4.03;;
44430;SDS011;30135;47.866;-4.222;2022-12-08T04:51:04;4.70;;;3.08;;
44430;SDS011;30135;47.866;-4.222;2022-12-08T04:56:46;8.77;;;4.10;;
44430;SDS011;30135;47.866;-4.222;2022-12-08T04:59:59;9.15;;;3.78;;
44430;SDS011;30135;47.866;-4.222;2022-12-08T05:03:36;8.85;;;3.80;;
44430;SDS011;30135;47.866;-4.222;2022-12-08T05:06:37;5.80;;;3.00;;
44430;SDS011;30135;47.866;-4.222;2022-12-08T05:09:54;8.00;;;4.03;;
44430;SDS011;30135;47.866;-4.222;2022-12-08T05:12:25;8.38;;;3.20;;
44430;SDS011;30135;47.866;-4.222;2022-12-08T05:15:37;6.78;;;3.70;;
44430;SDS011;30135;47.866;-4.222;2022-12-08T05:19:02;9.52;;;4.03;;
44430;SDS011;30135;47.866;-4.222;2022-12-08T05:21:51;9.20;;;4.30;;
44430;SDS011;30135;47.866;-4.222;2022-12-08T05:24:27;10.25;;;3.70;;
44430;SDS011;30135;47.866;-4.222;2022-12-08T05:27:05;12.02;;;4.60;;
44430;SDS011;30135;47.866;-4.222;2022-12-08T05:29:32;9.70;;;4.15;;
44430;SDS011;30135;47.866;-4.222;2022-12-08T05:32:53;10.40;;;4.85;;
44430;SDS011;30135;47.866;-4.222;2022-12-08T05:36:15;5.10;;;3.30;;
44430;SDS011;30135;47.866;-4.222;2022-12-08T05:39:28;7.32;;;3.28;;
44430;SDS011;30135;47.866;-4.222;2022-12-08T05:45:24;10.60;;;4.50;;
44430;SDS011;30135;47.866;-4.222;2022-12-08T05:48:44;8.13;;;4.25;;
44430;SDS011;30135;47.866;-4.222;2022-12-08T05:51:24;6.43;;;3.60;;
44430;SDS011;30135;47.866;-4.222;2022-12-08T05:54:52;11.15;;;4.72;;
44430;SDS011;30135;47.866;-4.222;2022-12-08T05:57:30;11.75;;;4.55;;
44430;SDS011;30135;47.866;-4.222;2022-12-08T06:00:06;12.05;;;3.90;;
44430;SDS011;30135;47.866;-4.222;2022-12-08T06:02:45;6.25;;;3.60;;
44430;SDS011;30135;47.866;-4.222;2022-12-08T06:05:21;9.15;;;4.57;;
44430;SDS011;30135;47.866;-4.222;2022-12-08T06:07:53;10.32;;;5.40;;
44430;SDS011;30135;47.866;-4.222;2022-12-08T06:10:30;7.22;;;4.13;;
44430;SDS011;30135;47.866;-4.222;2022-12-08T06:13:25;6.80;;;3.72;;
44430;SDS011;30135;47.866;-4.222;2022-12-08T06:16:05;6.75;;;3.97;;
44430;SDS011;30135;47.866;-4.222;2022-12-08T06:18:51;5.18;;;3.05;;
44430;SDS011;30135;47.866;-4.222;2022-12-08T06:21:30;6.53;;;3.00;;
44430;SDS011;30135;47.866;-4.222;2022-12-08T06:24:14;7.20;;;3.25;;
44430;SDS011;30135;47.866;-4.222;2022-12-08T06:26:52;6.13;;;3.05;;
44430;SDS011;30135;47.866;-4.222;2022-12-08T06:29:48;7.90;;;2.83;;
44430;SDS011;30135;47.866;-4.222;2022-12-08T06:32:26;7.30;;;3.50;;
44430;SDS011;30135;47.866;-4.222;2022-12-08T06:35:11;6.72;;;2.55;;
44430;SDS011;30135;47.866;-4.222;2022-12-08T06:37:50;6.57;;;4.00;;
44430;SDS011;30135;47.866;-4.222;2022-12-08T06:40:56;11.65;;;4.13;;
44430;SDS011;30135;47.866;-4.222;2022-12-08T06:43:43;9.20;;;3.72;;
44430;SDS011;30135;47.866;-4.222;2022-12-08T06:46:29;9.20;;;3.65;;
44430;SDS011;30135;47.866;-4.222;2022-12-08T06:49:09;9.15;;;3.95;;
44430;SDS011;30135;47.866;-4.222;2022-12-08T06:51:36;7.88;;;4.28;;
44430;SDS011;30135;47.866;-4.222;2022-12-08T06:54:15;6.50;;;3.25;;
44430;SDS011;30135;47.866;-4.222;2022-12-08T06:57:04;6.22;;;3.22;;
44430;SDS011;30135;47.866;-4.222;2022-12-08T06:59:30;5.88;;;2.83;;
44430;SDS011;30135;47.866;-4.222;2022-12-08T07:02:12;8.98;;;3.35;;
44430;SDS011;30135;47.866;-4.222;2022-12-08T07:04:41;9.97;;;3.20;;
44430;SDS011;30135;47.866;-4.222;2022-12-08T07:07:14;6.35;;;2.85;;
44430;SDS011;30135;47.866;-4.222;2022-12-08T07:09:53;8.77;;;3.28;;
44430;SDS011;30135;47.866;-4.222;2022-12-08T07:12:32;7.93;;;3.28;;
44430;SDS011;30135;47.866;-4.222;2022-12-08T07:15:07;6.47;;;3.80;;
44430;SDS011;30135;47.866;-4.222;2022-12-08T07:17:43;6.38;;;3.28;;
44430;SDS011;30135;47.866;-4.222;2022-12-08T07:20:35;6.38;;;2.90;;
44430;SDS011;30135;47.866;-4.222;2022-12-08T07:23:18;7.63;;;2.97;;
44430;SDS011;30135;47.866;-4.222;2022-12-08T07:26:10;7.28;;;3.55;;
44430;SDS011;30135;47.866;-4.222;2022-12-08T07:28:45;7.05;;;3.20;;
44430;SDS011;30135;47.866;-4.222;2022-12-08T07:31:29;6.70;;;3.58;;
44430;SDS011;30135;47.866;-4.222;2022-12-08T07:34:04;6.13;;;3.22;;
44430;SDS011;30135;47.866;-4.222;2022-12-08T07:36:45;8.52;;;4.53;;
44430;SDS011;30135;47.866;-4.222;2022-12-08T07:39:31;10.88;;;3.13;;
44430;SDS011;30135;47.866;-4.222;2022-12-08T07:42:12;9.32;;;4.22;;
44430;SDS011;30135;47.866;-4.222;2022-12-08T07:44:45;11.30;;;5.15;;
44430;SDS011;30135;47.866;-4.222;2022-12-08T07:47:11;9.43;;;5.15;;
44430;SDS011;30135;47.866;-4.222;2022-12-08T07:49:58;13.88;;;4.45;;
44430;SDS011;30135;47.866;-4.222;2022-12-08T07:52:33;17.88;;;4.80;;
44430;SDS011;30135;47.866;-4.222;2022-12-08T07:55:01;8.68;;;4.60;;
44430;SDS011;30135;47.866;-4.222;2022-12-08T07:57:50;10.57;;;3.33;;
44430;SDS011;30135;47.866;-4.222;2022-12-08T08:00:22;8.95;;;4.50;;
44430;SDS011;30135;47.866;-4.222;2022-12-08T08:03:29;9.95;;;4.28;;
44430;SDS011;30135;47.866;-4.222;2022-12-08T08:06:30;9.00;;;4.32;;
44430;SDS011;30135;47.866;-4.222;2022-12-08T08:09:49;10.63;;;4.85;;
44430;SDS011;30135;47.866;-4.222;2022-12-08T08:12:22;11.13;;;4.75;;
44430;SDS011;30135;47.866;-4.222;2022-12-08T08:15:34;8.02;;;3.90;;
44430;SDS011;30135;47.866;-4.222;2022-12-08T08:18:26;10.05;;;3.50;;
44430;SDS011;30135;47.866;-4.222;2022-12-08T08:20:52;8.00;;;2.65;;
44430;SDS011;30135;47.866;-4.222;2022-12-08T08:23:29;4.10;;;2.30;;
44430;SDS011;30135;47.866;-4.222;2022-12-08T08:26:03;7.05;;;2.90;;
44430;SDS011;30135;47.866;-4.222;2022-12-08T08:28:29;5.22;;;2.83;;
44430;SDS011;30135;47.866;-4.222;2022-12-08T08:31:02;6.28;;;2.47;;
44430;SDS011;30135;47.866;-4.222;2022-12-08T08:34:18;6.43;;;2.95;;
44430;SDS011;30135;47.866;-4.222;2022-12-08T08:36:50;12.68;;;2.85;;
44430;SDS011;30135;47.866;-4.222;2022-12-08T08:39:17;3.17;;;2.17;;
44430;SDS011;30135;47.866;-4.222;2022-12-08T08:41:43;5.18;;;2.72;;
44430;SDS011;30135;47.866;-4.222;2022-12-08T08:44:20;4.95;;;2.65;;
44430;SDS011;30135;47.866;-4.222;2022-12-08T08:46:46;6.00;;;2.92;;
44430;SDS011;30135;47.866;-4.222;2022-12-08T08:49:12;7.28;;;2.75;;
44430;SDS011;30135;47.866;-4.222;2022-12-08T08:51:38;5.28;;;2.60;;
44430;SDS011;30135;47.866;-4.222;2022-12-08T08:54:05;5.50;;;2.40;;
44430;SDS011;30135;47.866;-4.222;2022-12-08T08:56:31;8.23;;;3.22;;
44430;SDS011;30135;47.866;-4.222;2022-12-08T08:58:57;8.23;;;2.75;;
44430;SDS011;30135;47.866;-4.222;2022-12-08T09:01:24;5.32;;;2.75;;
44430;SDS011;30135;47.866;-4.222;2022-12-08T09:03:52;3.83;;;2.20;;
44430;SDS011;30135;47.866;-4.222;2022-12-08T09:06:19;7.85;;;3.25;;
44430;SDS011;30135;47.866;-4.222;2022-12-08T09:08:49;7.43;;;3.20;;
44430;SDS011;30135;47.866;-4.222;2022-12-08T09:11:15;6.55;;;3.05;;
44430;SDS011;30135;47.866;-4.222;2022-12-08T09:13:42;9.43;;;2.85;;
44430;SDS011;30135;47.866;-4.222;2022-12-08T09:16:11;9.95;;;3.08;;
44430;SDS011;30135;47.866;-4.222;2022-12-08T09:18:37;11.55;;;3.65;;
44430;SDS011;30135;47.866;-4.222;2022-12-08T09:21:07;5.63;;;3.13;;
44430;SDS011;30135;47.866;-4.222;2022-12-08T09:23:40;9.07;;;3.00;;
44430;SDS011;30135;47.866;-4.222;2022-12-08T09:26:07;7.88;;;2.80;;
44430;SDS011;30135;47.866;-4.222;2022-12-08T09:28:34;9.73;;;3.92;;
44430;SDS011;30135;47.866;-4.222;2022-12-08T09:31:01;7.70;;;3.75;;
44430;SDS011;30135;47.866;-4.222;2022-12-08T09:33:36;6.55;;;2.95;;
44430;SDS011;30135;47.866;-4.222;2022-12-08T09:36:02;8.07;;;3.30;;
44430;SDS011;30135;47.866;-4.222;2022-12-08T09:38:29;8.30;;;3.28;;
44430;SDS011;30135;47.866;-4.222;2022-12-08T09:40:55;7.72;;;3.42;;
44430;SDS011;30135;47.866;-4.222;2022-12-08T09:46:25;15.55;;;4.65;;
44430;SDS011;30135;47.866;-4.222;2022-12-08T09:48:55;7.70;;;3.05;;
44430;SDS011;30135;47.866;-4.222;2022-12-08T09:51:24;4.18;;;2.67;;
44430;SDS011;30135;47.866;-4.222;2022-12-08T09:54:03;6.75;;;2.38;;
44430;SDS011;30135;47.866;-4.222;2022-12-08T09:56:55;5.50;;;2.05;;
44430;SDS011;30135;47.866;-4.222;2022-12-08T09:59:33;3.97;;;1.80;;
44430;SDS011;30135;47.866;-4.222;2022-12-08T10:02:25;4.70;;;2.50;;
44430;SDS011;30135;47.866;-4.222;2022-12-08T10:05:12;5.05;;;2.22;;
44430;SDS011;30135;47.866;-4.222;2022-12-08T10:07:57;4.53;;;1.95;;
44430;SDS011;30135;47.866;-4.222;2022-12-08T10:11:04;8.35;;;2.53;;
44430;SDS011;30135;47.866;-4.222;2022-12-08T10:17:37;5.82;;;3.00;;
44430;SDS011;30135;47.866;-4.222;2022-12-08T10:22:45;3.88;;;2.17;;
44430;SDS011;30135;47.866;-4.222;2022-12-08T10:25:33;3.17;;;1.67;;
44430;SDS011;30135;47.866;-4.222;2022-12-08T10:28:11;3.22;;;1.27;;
44430;SDS011;30135;47.866;-4.222;2022-12-08T10:30:38;6.32;;;1.38;;
44430;SDS011;30135;47.866;-4.222;2022-12-08T10:33:04;12.70;;;1.52;;
44430;SDS011;30135;47.866;-4.222;2022-12-08T10:40:59;6.82;;;1.17;;
44430;SDS011;30135;47.866;-4.222;2022-12-08T10:43:41;1.45;;;0.80;;
44430;SDS011;30135;47.866;-4.222;2022-12-08T10:46:26;6.15;;;1.30;;
44430;SDS011;30135;47.866;-4.222;2022-12-08T10:51:35;4.13;;;1.52;;
44430;SDS011;30135;47.866;-4.222;2022-12-08T10:54:05;4.90;;;1.30;;
44430;SDS011;30135;47.866;-4.222;2022-12-08T10:57:05;5.78;;;1.20;;
44430;SDS011;30135;47.866;-4.222;2022-12-08T10:59:44;3.28;;;1.48;;
44430;SDS011;30135;47.866;-4.222;2022-12-08T11:02:13;3.40;;;0.90;;
44430;SDS011;30135;47.866;-4.222;2022-12-08T11:04:43;3.38;;;0.73;;
44430;SDS011;30135;47.866;-4.222;2022-12-08T11:07:10;1.45;;;0.82;;
44430;SDS011;30135;47.866;-4.222;2022-12-08T11:09:46;7.57;;;0.90;;
44430;SDS011;30135;47.866;-4.222;2022-12-08T11:12:20;2.72;;;1.00;;
44430;SDS011;30135;47.866;-4.222;2022-12-08T11:14:58;1.17;;;0.70;;
44430;SDS011;30135;47.866;-4.222;2022-12-08T11:17:28;1.13;;;1.02;;
44430;SDS011;30135;47.866;-4.222;2022-12-08T11:22:51;3.15;;;0.73;;
44430;SDS011;30135;47.866;-4.222;2022-12-08T11:25:20;2.25;;;0.77;;
44430;SDS011;30135;47.866;-4.222;2022-12-08T11:27:51;4.13;;;0.75;;
44430;SDS011;30135;47.866;-4.222;2022-12-08T11:30:30;3.80;;;0.70;;
44430;SDS011;30135;47.866;-4.222;2022-12-08T11:33:13;4.07;;;0.60;;
44430;SDS011;30135;47.866;-4.222;2022-12-08T11:36:00;3.28;;;1.20;;
44430;SDS011;30135;47.866;-4.222;2022-12-08T11:38:30;5.00;;;0.75;;
44430;SDS011;30135;47.866;-4.222;2022-12-08T11:44:05;1.65;;;0.70;;
44430;SDS011;30135;47.866;-4.222;2022-12-08T11:47:12;2.42;;;0.47;;
44430;SDS011;30135;47.866;-4.222;2022-12-08T11:49:54;1.75;;;0.80;;
44430;SDS011;30135;47.866;-4.222;2022-12-08T11:52:50;2.95;;;0.75;;
44430;SDS011;30135;47.866;-4.222;2022-12-08T11:55:38;3.60;;;0.85;;
44430;SDS011;30135;47.866;-4.222;2022-12-08T12:00:56;2.88;;;1.30;;
44430;SDS011;30135;47.866;-4.222;2022-12-08T12:03:36;7.35;;;1.30;;
44430;SDS011;30135;47.866;-4.222;2022-12-08T12:17:54;10.85;;;1.02;;
44430;SDS011;30135;47.866;-4.222;2022-12-08T12:20:33;1.42;;;0.65;;
44430;SDS011;30135;47.866;-4.222;2022-12-08T12:23:08;1.38;;;0.75;;
44430;SDS011;30135;47.866;-4.222;2022-12-08T12:25:50;1.50;;;0.50;;
44430;SDS011;30135;47.866;-4.222;2022-12-08T12:28:29;1.23;;;0.55;;
44430;SDS011;30135;47.866;-4.222;2022-12-08T12:31:14;2.88;;;0.52;;
44430;SDS011;30135;47.866;-4.222;2022-12-08T12:34:22;1.15;;;0.43;;
44430;SDS011;30135;47.866;-4.222;2022-12-08T12:37:12;2.67;;;0.85;;
44430;SDS011;30135;47.866;-4.222;2022-12-08T12:50:41;1.75;;;1.00;;
44430;SDS011;30135;47.866;-4.222;2022-12-08T12:55:56;0.73;;;0.40;;
44430;SDS011;30135;47.866;-4.222;2022-12-08T13:03:39;0.38;;;0.22;;
44430;SDS011;30135;47.866;-4.222;2022-12-08T13:06:14;2.00;;;0.70;;
44430;SDS011;30135;47.866;-4.222;2022-12-08T13:08:50;2.05;;;0.43;;
44430;SDS011;30135;47.866;-4.222;2022-12-08T13:11:18;0.30;;;0.30;;
44430;SDS011;30135;47.866;-4.222;2022-12-08T13:13:56;1.48;;;0.60;;
44430;SDS011;30135;47.866;-4.222;2022-12-08T13:16:25;2.45;;;0.55;;
44430;SDS011;30135;47.866;-4.222;2022-12-08T13:18:56;2.30;;;0.73;;
44430;SDS011;30135;47.866;-4.222;2022-12-08T13:21:31;1.00;;;0.40;;
44430;SDS011;30135;47.866;-4.222;2022-12-08T13:26:47;1.48;;;0.47;;
44430;SDS011;30135;47.866;-4.222;2022-12-08T13:29:16;0.75;;;0.40;;
44430;SDS011;30135;47.866;-4.222;2022-12-08T13:31:49;1.95;;;0.40;;
44430;SDS011;30135;47.866;-4.222;2022-12-08T13:34:28;1.08;;;0.30;;
44430;SDS011;30135;47.866;-4.222;2022-12-08T13:40:13;3.63;;;0.85;;
44430;SDS011;30135;47.866;-4.222;2022-12-08T13:42:45;2.78;;;0.70;;
44430;SDS011;30135;47.866;-4.222;2022-12-08T13:45:26;1.38;;;0.50;;
44430;SDS011;30135;47.866;-4.222;2022-12-08T13:48:05;2.22;;;0.60;;
44430;SDS011;30135;47.866;-4.222;2022-12-08T13:51:11;2.08;;;0.88;;
44430;SDS011;30135;47.866;-4.222;2022-12-08T13:53:43;2.65;;;0.93;;
44430;SDS011;30135;47.866;-4.222;2022-12-08T13:56:38;3.92;;;0.60;;
44430;SDS011;30135;47.866;-4.222;2022-12-08T13:59:28;3.70;;;0.90;;
44430;SDS011;30135;47.866;-4.222;2022-12-08T14:02:03;1.42;;;0.57;;
44430;SDS011;30135;47.866;-4.222;2022-12-08T14:04:50;7.60;;;1.30;;
44430;SDS011;30135;47.866;-4.222;2022-12-08T14:07:18;1.63;;;0.85;;
44430;SDS011;30135;47.866;-4.222;2022-12-08T14:09:44;2.95;;;0.80;;
44430;SDS011;30135;47.866;-4.222;2022-12-08T14:12:44;0.90;;;0.50;;
44430;SDS011;30135;47.866;-4.222;2022-12-08T14:15:14;4.57;;;0.73;;
44430;SDS011;30135;47.866;-4.222;2022-12-08T14:17:43;3.20;;;0.82;;
44430;SDS011;30135;47.866;-4.222;2022-12-08T14:20:28;2.22;;;0.90;;
44430;SDS011;30135;47.866;-4.222;2022-12-08T14:22:56;0.50;;;0.30;;
44430;SDS011;30135;47.866;-4.222;2022-12-08T14:25:24;2.28;;;0.70;;
44430;SDS011;30135;47.866;-4.222;2022-12-08T14:27:59;2.90;;;0.80;;
44430;SDS011;30135;47.866;-4.222;2022-12-08T14:30:30;1.75;;;0.50;;
44430;SDS011;30135;47.866;-4.222;2022-12-08T14:32:58;0.98;;;0.50;;
44430;SDS011;30135;47.866;-4.222;2022-12-08T14:38:01;2.70;;;0.40;;
44430;SDS011;30135;47.866;-4.222;2022-12-08T14:40:38;4.30;;;0.85;;
44430;SDS011;30135;47.866;-4.222;2022-12-08T14:43:15;0.82;;;0.40;;
44430;SDS011;30135;47.866;-4.222;2022-12-08T14:45:45;1.58;;;0.60;;
44430;SDS011;30135;47.866;-4.222;2022-12-08T14:48:19;0.50;;;0.40;;
44430;SDS011;30135;47.866;-4.222;2022-12-08T14:51:04;6.97;;;0.57;;
44430;SDS011;30135;47.866;-4.222;2022-12-08T14:56:18;5.15;;;0.30;;
44430;SDS011;30135;47.866;-4.222;2022-12-08T14:58:49;3.22;;;0.60;;
44430;SDS011;30135;47.866;-4.222;2022-12-08T15:01:41;2.42;;;0.88;;
44430;SDS011;30135;47.866;-4.222;2022-12-08T15:09:31;6.05;;;1.63;;
44430;SDS011;30135;47.866;-4.222;2022-12-08T15:14:57;2.15;;;0.95;;
44430;SDS011;30135;47.866;-4.222;2022-12-08T15:23:20;1.63;;;0.77;;
44430;SDS011;30135;47.866;-4.222;2022-12-08T15:25:53;2.35;;;0.60;;
44430;SDS011;30135;47.866;-4.222;2022-12-08T15:28:21;3.38;;;0.90;;
44430;SDS011;30135;47.866;-4.222;2022-12-08T15:30:53;2.15;;;0.63;;
44430;SDS011;30135;47.866;-4.222;2022-12-08T15:33:20;6.40;;;1.13;;
44430;SDS011;30135;47.866;-4.222;2022-12-08T15:35:49;1.92;;;0.70;;
44430;SDS011;30135;47.866;-4.222;2022-12-08T15:38:16;1.98;;;0.50;;
44430;SDS011;30135;47.866;-4.222;2022-12-08T15:40:51;16.40;;;0.75;;
44430;SDS011;30135;47.866;-4.222;2022-12-08T15:43:18;1.05;;;0.52;;
44430;SDS011;30135;47.866;-4.222;2022-12-08T15:45:46;1.05;;;0.65;;
44430;SDS011;30135;47.866;-4.222;2022-12-08T15:48:31;5.05;;;0.80;;
44430;SDS011;30135;47.866;-4.222;2022-12-08T15:50:57;6.47;;;0.75;;
44430;SDS011;30135;47.866;-4.222;2022-12-08T15:53:23;2.50;;;1.05;;
44430;SDS011;30135;47.866;-4.222;2022-12-08T15:55:49;2.75;;;0.52;;
44430;SDS011;30135;47.866;-4.222;2022-12-08T15:58:17;1.73;;;1.15;;
44430;SDS011;30135;47.866;-4.222;2022-12-08T16:00:48;2.25;;;0.88;;
44430;SDS011;30135;47.866;-4.222;2022-12-08T16:03:29;5.80;;;0.80;;
44430;SDS011;30135;47.866;-4.222;2022-12-08T16:05:57;2.17;;;1.08;;
44430;SDS011;30135;47.866;-4.222;2022-12-08T16:08:27;2.42;;;0.80;;
44430;SDS011;30135;47.866;-4.222;2022-12-08T16:10:54;9.55;;;1.30;;
44430;SDS011;30135;47.866;-4.222;2022-12-08T16:13:39;2.92;;;1.38;;
44430;SDS011;30135;47.866;-4.222;2022-12-08T16:16:27;4.00;;;1.40;;
44430;SDS011;30135;47.866;-4.222;2022-12-08T16:18:54;1.77;;;1.50;;
44430;SDS011;30135;47.866;-4.222;2022-12-08T16:21:20;1.17;;;0.68;;
44430;SDS011;30135;47.866;-4.222;2022-12-08T16:23:46;6.65;;;1.00;;
44430;SDS011;30135;47.866;-4.222;2022-12-08T16:26:16;1.85;;;0.90;;
44430;SDS011;30135;47.866;-4.222;2022-12-08T16:28:45;7.45;;;1.02;;
44430;SDS011;30135;47.866;-4.222;2022-12-08T16:31:11;8.13;;;1.65;;
44430;SDS011;30135;47.866;-4.222;2022-12-08T16:33:38;5.72;;;1.70;;
44430;SDS011;30135;47.866;-4.222;2022-12-08T16:36:05;2.20;;;1.40;;
44430;SDS011;30135;47.866;-4.222;2022-12-08T16:38:31;7.32;;;1.65;;
44430;SDS011;30135;47.866;-4.222;2022-12-08T16:40:59;9.70;;;2.10;;
44430;SDS011;30135;47.866;-4.222;2022-12-08T16:43:43;4.85;;;1.73;;
44430;SDS011;30135;47.866;-4.222;2022-12-08T16:46:15;3.90;;;1.55;;
44430;SDS011;30135;47.866;-4.222;2022-12-08T16:48:43;7.63;;;2.50;;
44430;SDS011;30135;47.866;-4.222;2022-12-08T16:51:13;4.20;;;2.08;;
44430;SDS011;30135;47.866;-4.222;2022-12-08T16:53:41;6.15;;;2.20;;
44430;SDS011;30135;47.866;-4.222;2022-12-08T16:56:07;7.38;;;2.95;;
44430;SDS011;30135;47.866;-4.222;2022-12-08T16:58:43;6.97;;;3.33;;
44430;SDS011;30135;47.866;-4.222;2022-12-08T17:01:15;11.77;;;4.07;;
44430;SDS011;30135;47.866;-4.222;2022-12-08T17:03:42;7.00;;;3.30;;
44430;SDS011;30135;47.866;-4.222;2022-12-08T17:06:10;10.32;;;3.92;;
44430;SDS011;30135;47.866;-4.222;2022-12-08T17:08:39;8.52;;;3.10;;
44430;SDS011;30135;47.866;-4.222;2022-12-08T17:11:06;9.00;;;4.50;;
44430;SDS011;30135;47.866;-4.222;2022-12-08T17:13:37;7.68;;;3.58;;
44430;SDS011;30135;47.866;-4.222;2022-12-08T17:16:09;9.70;;;3.63;;
44430;SDS011;30135;47.866;-4.222;2022-12-08T17:18:40;15.05;;;5.10;;
44430;SDS011;30135;47.866;-4.222;2022-12-08T17:21:09;13.35;;;4.60;;
44430;SDS011;30135;47.866;-4.222;2022-12-08T17:23:37;12.02;;;4.28;;
44430;SDS011;30135;47.866;-4.222;2022-12-08T17:26:04;10.90;;;4.22;;
44430;SDS011;30135;47.866;-4.222;2022-12-08T17:28:30;9.25;;;4.40;;
44430;SDS011;30135;47.866;-4.222;2022-12-08T17:30:56;10.50;;;4.32;;
44430;SDS011;30135;47.866;-4.222;2022-12-08T17:33:24;11.43;;;4.97;;
44430;SDS011;30135;47.866;-4.222;2022-12-08T17:35:53;11.73;;;4.45;;
44430;SDS011;30135;47.866;-4.222;2022-12-08T17:38:20;16.00;;;5.13;;
44430;SDS011;30135;47.866;-4.222;2022-12-08T17:40:47;9.82;;;4.05;;
44430;SDS011;30135;47.866;-4.222;2022-12-08T17:43:13;13.65;;;4.35;;
44430;SDS011;30135;47.866;-4.222;2022-12-08T17:45:41;10.10;;;4.20;;
44430;SDS011;30135;47.866;-4.222;2022-12-08T17:48:14;18.90;;;4.15;;
44430;SDS011;30135;47.866;-4.222;2022-12-08T17:53:33;10.57;;;4.30;;